createdAt,value
2018-09-15T00:01:54.077Z,74.75
2018-09-15T00:04:23.055Z,74.19
2018-09-15T00:06:51.401Z,74.05
2018-09-15T00:09:19.586Z,75.60
2018-09-15T00:11:47.728Z,75.24
2018-09-15T00:14:15.924Z,75.71
2018-09-15T00:16:44.080Z,75.66
2018-09-15T00:19:12.284Z,76.28
2018-09-15T00:21:42.008Z,75.61
2018-09-15T00:24:10.626Z,76.60
2018-09-15T00:26:40.073Z,76.30
2018-09-15T00:29:08.615Z,76.31
2018-09-15T00:31:36.942Z,76.37
2018-09-15T00:34:05.218Z,77.72
2018-09-15T00:36:33.468Z,77.81
2018-09-15T00:39:01.760Z,78.34
2018-09-15T00:41:29.767Z,79.41
2018-09-15T00:43:58.578Z,79.31
2018-09-15T00:46:26.798Z,80.32
2018-09-15T00:48:54.922Z,81.06
2018-09-15T00:51:23.061Z,81.54
2018-09-15T00:53:51.297Z,82.03
2018-09-15T00:56:19.537Z,81.58
2018-09-15T00:58:47.848Z,82.19
2018-09-15T01:01:16.115Z,82.87
2018-09-15T01:03:44.607Z,83.29
2018-09-15T01:06:13.549Z,83.43
2018-09-15T01:08:41.720Z,83.57
2018-09-15T01:11:09.885Z,84.82
2018-09-15T01:13:38.179Z,84.59
2018-09-15T01:16:06.357Z,85.02
2018-09-15T01:18:34.584Z,84.41
2018-09-15T01:21:02.805Z,84.55
2018-09-15T01:23:31.065Z,85.12
2018-09-15T01:25:59.371Z,83.91
2018-09-15T01:28:27.530Z,84.94
2018-09-15T01:30:55.715Z,84.44
2018-09-15T01:33:24.197Z,84.96
2018-09-15T01:35:52.608Z,85.48
2018-09-15T01:38:20.830Z,85.42
2018-09-15T01:40:48.989Z,85.70
2018-09-15T01:43:17.269Z,85.84
2018-09-15T01:45:45.529Z,86.79
2018-09-15T01:48:13.765Z,86.46
2018-09-15T01:50:42.019Z,86.07
2018-09-15T01:53:10.222Z,86.73
2018-09-15T01:55:38.514Z,86.66
2018-09-15T01:58:06.821Z,86.42
2018-09-15T02:00:34.985Z,86.83
2018-09-15T02:03:03.446Z,86.54
2018-09-15T02:05:31.636Z,86.05
2018-09-15T02:07:59.900Z,86.75
2018-09-15T02:10:28.049Z,85.52
2018-09-15T02:12:56.166Z,85.58
2018-09-15T02:15:24.407Z,85.26
2018-09-15T02:17:52.620Z,85.88
2018-09-15T02:20:20.864Z,85.26
2018-09-15T02:22:49.002Z,85.11
2018-09-15T02:25:17.285Z,84.61
2018-09-15T02:27:45.450Z,84.47
2018-09-15T02:30:13.677Z,83.88
2018-09-15T02:32:41.964Z,83.58
2018-09-15T02:35:10.151Z,82.50
2018-09-15T02:37:38.403Z,82.51
2018-09-15T02:40:06.777Z,82.26
2018-09-15T02:42:34.947Z,82.35
2018-09-15T02:45:03.170Z,82.12
2018-09-15T02:47:31.396Z,82.29
2018-09-15T02:49:59.674Z,81.92
2018-09-15T02:52:27.919Z,81.52
2018-09-15T02:54:56.304Z,80.75
2018-09-15T02:57:24.451Z,81.38
2018-09-15T02:59:52.713Z,80.24
2018-09-15T03:02:20.957Z,80.16
2018-09-15T03:04:49.215Z,80.28
2018-09-15T03:07:17.398Z,80.04
2018-09-15T03:09:45.643Z,80.50
2018-09-15T03:12:13.843Z,80.16
2018-09-15T03:14:41.942Z,80.58
2018-09-15T03:17:10.065Z,80.78
2018-09-15T03:19:38.317Z,80.91
2018-09-15T03:22:06.580Z,81.92
2018-09-15T03:24:34.820Z,81.83
2018-09-15T03:27:02.993Z,81.77
2018-09-15T03:29:31.205Z,81.92
2018-09-15T03:31:59.666Z,81.90
2018-09-15T03:34:27.822Z,82.50
2018-09-15T03:36:55.960Z,82.92
2018-09-15T03:39:24.184Z,82.68
2018-09-15T03:41:52.460Z,81.73
2018-09-15T03:44:20.684Z,81.76
2018-09-15T03:46:49.008Z,81.83
2018-09-15T03:49:17.188Z,81.60
2018-09-15T03:51:45.338Z,82.14
2018-09-15T03:54:17.783Z,81.49
2018-09-15T03:56:45.894Z,82.19
2018-09-15T03:59:14.779Z,82.58
2018-09-15T04:01:43.916Z,82.30
2018-09-15T04:04:12.156Z,82.42
2018-09-15T04:06:40.590Z,82.35
2018-09-15T04:09:10.114Z,81.94
2018-09-15T04:11:38.658Z,81.02
2018-09-15T04:14:06.970Z,80.67
2018-09-15T04:16:35.222Z,80.42
2018-09-15T04:19:03.558Z,79.34
2018-09-15T04:21:31.741Z,79.30
2018-09-15T04:24:00.050Z,79.11
2018-09-15T04:26:29.130Z,79.61
2018-09-15T04:28:57.396Z,79.06
2018-09-15T04:31:26.210Z,77.46
2018-09-15T04:33:54.511Z,78.19
2018-09-15T04:36:22.673Z,76.85
2018-09-15T04:38:50.882Z,77.39
2018-09-15T04:41:19.249Z,77.17
2018-09-15T04:43:47.748Z,77.48
2018-09-15T04:46:16.120Z,77.93
2018-09-15T04:48:44.345Z,78.13
2018-09-15T04:51:12.595Z,78.73
2018-09-15T04:53:41.024Z,78.37
2018-09-15T04:56:09.704Z,78.36
2018-09-15T04:58:37.901Z,78.71
2018-09-15T05:01:06.178Z,77.87
2018-09-15T05:03:34.453Z,77.79
2018-09-15T05:06:02.576Z,76.76
2018-09-15T05:08:30.854Z,76.92
2018-09-15T05:10:59.146Z,77.04
2018-09-15T05:13:27.381Z,75.54
2018-09-15T05:15:55.519Z,75.98
2018-09-15T05:18:23.831Z,76.29
2018-09-15T05:20:52.086Z,76.06
2018-09-15T05:23:20.343Z,75.05
2018-09-15T05:25:48.577Z,75.16
2018-09-15T05:28:16.805Z,74.88
2018-09-15T05:30:45.065Z,74.94
2018-09-15T05:33:13.776Z,73.68
2018-09-15T05:35:43.923Z,74.14
2018-09-15T05:38:12.130Z,73.63
2018-09-15T05:40:40.459Z,74.26
2018-09-15T05:43:08.600Z,74.00
2018-09-15T05:45:36.909Z,74.08
2018-09-15T05:48:05.201Z,73.55
2018-09-15T05:50:33.426Z,72.65
2018-09-15T05:53:02.330Z,72.99
2018-09-15T05:55:31.494Z,72.38
2018-09-15T05:57:59.648Z,72.15
2018-09-15T06:00:27.778Z,72.91
2018-09-15T06:02:55.908Z,72.24
2018-09-15T06:05:24.044Z,71.25
2018-09-15T06:07:52.816Z,70.94
2018-09-15T06:10:21.036Z,70.59
2018-09-15T06:12:49.517Z,70.82
2018-09-15T06:15:17.710Z,70.31
2018-09-15T06:17:46.060Z,68.11
2018-09-15T06:20:14.285Z,68.13
2018-09-15T06:22:42.468Z,68.09
2018-09-15T06:25:10.621Z,67.11
2018-09-15T06:27:38.748Z,67.22
2018-09-15T06:30:07.533Z,67.18
2018-09-15T06:32:35.667Z,66.60
2018-09-15T06:35:03.903Z,65.96
2018-09-15T06:37:32.307Z,64.31
2018-09-15T06:40:00.531Z,64.34
2018-09-15T06:42:28.816Z,64.16
2018-09-15T06:44:58.053Z,63.76
2018-09-15T06:47:26.282Z,62.87
2018-09-15T06:49:54.509Z,62.68
2018-09-15T06:52:22.667Z,61.55
2018-09-15T06:54:50.737Z,61.36
2018-09-15T06:57:18.960Z,60.82
2018-09-15T06:59:47.234Z,60.95
2018-09-15T07:02:15.485Z,60.33
2018-09-15T07:04:43.625Z,59.58
2018-09-15T07:07:11.799Z,59.12
2018-09-15T07:09:39.967Z,58.75
2018-09-15T07:12:08.147Z,57.88
2018-09-15T07:14:36.327Z,57.94
2018-09-15T07:17:04.532Z,57.62
2018-09-15T07:19:32.830Z,56.92
2018-09-15T07:22:01.033Z,55.66
2018-09-15T07:24:29.501Z,54.95
2018-09-15T07:26:57.695Z,55.50
2018-09-15T07:29:25.817Z,55.01
2018-09-15T07:31:54.062Z,54.60
2018-09-15T07:34:22.217Z,54.21
2018-09-15T07:36:50.499Z,53.15
2018-09-15T07:39:18.818Z,51.99
2018-09-15T07:41:46.991Z,51.08
2018-09-15T07:44:15.257Z,52.47
2018-09-15T07:46:43.508Z,53.09
2018-09-15T07:49:11.789Z,52.08
2018-09-15T07:51:39.995Z,52.17
2018-09-15T07:54:08.139Z,51.59
2018-09-15T07:56:37.091Z,50.32
2018-09-15T07:59:05.628Z,50.41
2018-09-15T08:01:33.788Z,50.33
2018-09-15T08:04:02.088Z,50.87
2018-09-15T08:06:30.422Z,51.62
2018-09-15T08:08:58.836Z,51.12
2018-09-15T08:11:26.986Z,49.49
2018-09-15T08:13:55.120Z,48.92
2018-09-15T08:16:23.472Z,48.51
2018-09-15T08:18:51.671Z,47.77
2018-09-15T08:21:20.023Z,47.26
2018-09-15T08:23:48.168Z,48.00
2018-09-15T08:26:16.798Z,48.09
2018-09-15T08:28:44.833Z,48.27
2018-09-15T08:31:12.964Z,48.22
2018-09-15T08:33:41.089Z,47.18
2018-09-15T08:36:15.826Z,47.97
2018-09-15T08:38:44.468Z,48.53
2018-09-15T08:41:12.673Z,47.29
2018-09-15T08:43:40.896Z,48.22
2018-09-15T08:46:09.164Z,47.55
2018-09-15T08:48:37.376Z,46.49
2018-09-15T08:51:05.747Z,46.01
2018-09-15T08:53:34.077Z,46.24
2018-09-15T08:56:02.231Z,45.81
2018-09-15T08:58:30.420Z,45.78
2018-09-15T09:00:58.646Z,45.19
2018-09-15T09:03:26.861Z,43.82
2018-09-15T09:05:55.079Z,43.89
2018-09-15T09:08:23.225Z,41.29
2018-09-15T09:10:51.379Z,32.46
2018-09-15T09:13:19.853Z,26.06
2018-09-15T09:15:47.997Z,21.84
2018-09-15T09:18:16.306Z,19.42
2018-09-15T09:20:44.453Z,19.17
2018-09-15T09:23:12.787Z,15.44
2018-09-15T09:25:40.972Z,13.22
2018-09-15T09:28:09.322Z,15.57
2018-09-15T09:30:37.417Z,14.21
2018-09-15T09:33:05.632Z,13.48
2018-09-15T09:35:33.809Z,14.10
2018-09-15T09:38:01.964Z,12.32
2018-09-15T09:40:30.109Z,12.11
2018-09-15T09:42:58.352Z,11.68
2018-09-15T09:45:26.693Z,10.52
2018-09-15T09:47:55.065Z,10.36
2018-09-15T09:50:23.207Z,10.62
2018-09-15T09:52:51.445Z,10.34
2018-09-15T09:55:19.723Z,9.98
2018-09-15T09:57:47.915Z,10.33
2018-09-15T10:00:21.910Z,10.65
2018-09-15T10:02:50.052Z,9.55
2018-09-15T10:05:18.223Z,9.98
2018-09-15T10:07:46.464Z,9.05
2018-09-15T10:10:14.872Z,9.04
2018-09-15T10:12:43.108Z,8.93
2018-09-15T10:15:11.486Z,9.47
2018-09-15T10:17:39.624Z,10.26
2018-09-15T10:20:07.880Z,11.03
2018-09-15T10:22:36.146Z,11.93
2018-09-15T10:25:04.306Z,13.87
2018-09-15T10:27:32.538Z,14.92
2018-09-15T10:30:00.694Z,13.65
2018-09-15T10:32:29.018Z,11.78
2018-09-15T10:34:57.314Z,13.03
2018-09-15T10:37:26.083Z,13.27
2018-09-15T10:39:54.357Z,13.63
2018-09-15T10:42:22.618Z,12.21
2018-09-15T10:44:50.844Z,10.87
2018-09-15T10:47:19.097Z,10.27
2018-09-15T10:49:47.520Z,9.81
2018-09-15T10:52:15.803Z,10.08
2018-09-15T10:54:43.926Z,8.63
2018-09-15T10:57:12.133Z,8.73
2018-09-15T10:59:40.359Z,8.52
2018-09-15T11:02:12.132Z,7.95
2018-09-15T11:04:42.158Z,10.43
2018-09-15T11:07:10.307Z,9.48
2018-09-15T11:09:38.443Z,9.02
2018-09-15T11:12:06.625Z,9.92
2018-09-15T11:14:34.896Z,12.10
2018-09-15T11:17:02.991Z,14.82
2018-09-15T11:19:31.143Z,15.97
2018-09-15T11:21:59.591Z,15.41
2018-09-15T11:24:27.749Z,12.91
2018-09-15T11:26:56.295Z,10.86
2018-09-15T11:29:24.481Z,9.56
2018-09-15T11:31:52.665Z,9.74
2018-09-15T11:34:20.843Z,10.02
2018-09-15T11:36:48.943Z,11.95
2018-09-15T11:39:17.242Z,12.86
2018-09-15T11:41:45.445Z,15.12
2018-09-15T11:44:13.674Z,17.25
2018-09-15T11:46:41.845Z,18.94
2018-09-15T11:49:09.988Z,19.10
2018-09-15T11:51:38.279Z,19.68
2018-09-15T11:54:07.249Z,21.46
2018-09-15T11:56:35.408Z,21.60
2018-09-15T11:59:03.587Z,22.56
2018-09-15T12:01:31.887Z,22.46
2018-09-15T12:04:00.080Z,23.33
2018-09-15T12:06:28.319Z,25.78
2018-09-15T12:08:57.093Z,25.60
2018-09-15T12:11:25.532Z,26.68
2018-09-15T12:13:54.409Z,27.17
2018-09-15T12:16:22.706Z,28.14
2018-09-15T12:18:50.859Z,28.99
2018-09-15T12:21:19.080Z,29.25
2018-09-15T12:23:47.172Z,30.17
2018-09-15T12:26:15.378Z,29.77
2018-09-15T12:28:43.600Z,27.09
2018-09-15T12:31:11.794Z,23.32
2018-09-15T12:33:40.097Z,19.82
2018-09-15T12:36:08.395Z,19.94
2018-09-15T12:38:36.698Z,21.07
2018-09-15T12:41:04.939Z,23.80
2018-09-15T12:43:33.260Z,23.17
2018-09-15T12:46:01.639Z,24.29
2018-09-15T12:48:29.914Z,24.02
2018-09-15T12:50:58.282Z,24.05
2018-09-15T12:53:26.565Z,21.12
2018-09-15T12:55:54.803Z,22.35
2018-09-15T12:58:23.069Z,21.37
2018-09-15T13:00:51.225Z,21.01
2018-09-15T13:03:19.459Z,20.31
2018-09-15T13:05:47.801Z,20.77
2018-09-15T13:08:15.954Z,22.49
2018-09-15T13:10:44.244Z,23.89
2018-09-15T13:13:12.453Z,25.65
2018-09-15T13:15:40.707Z,26.58
2018-09-15T13:18:08.819Z,29.57
2018-09-15T13:20:37.024Z,29.22
2018-09-15T13:23:05.329Z,30.76
2018-09-15T13:25:33.515Z,31.95
2018-09-15T13:28:02.707Z,31.09
2018-09-15T13:30:31.160Z,31.06
2018-09-15T13:32:59.499Z,31.87
2018-09-15T13:35:27.615Z,31.50
2018-09-15T13:37:55.913Z,32.30
2018-09-15T13:40:24.099Z,32.27
2018-09-15T13:42:52.301Z,31.62
2018-09-15T13:45:20.367Z,31.01
2018-09-15T13:47:48.581Z,30.16
2018-09-15T13:50:20.877Z,30.65
2018-09-15T13:52:49.283Z,30.62
2018-09-15T13:55:17.572Z,30.92
2018-09-15T13:57:45.652Z,32.07
2018-09-15T14:00:14.146Z,32.77
2018-09-15T14:02:43.425Z,32.95
2018-09-15T14:05:13.164Z,33.36
2018-09-15T14:07:41.862Z,33.01
2018-09-15T14:10:10.422Z,34.23
2018-09-15T14:12:39.022Z,34.70
2018-09-15T14:15:07.221Z,34.26
2018-09-15T14:17:35.441Z,34.00
2018-09-15T14:20:04.042Z,34.50
2018-09-15T14:22:33.341Z,34.20
2018-09-15T14:25:01.565Z,33.94
2018-09-15T14:27:29.657Z,34.60
2018-09-15T14:29:57.881Z,34.80
2018-09-15T14:32:26.108Z,33.27
2018-09-15T14:34:54.450Z,31.75
2018-09-15T14:37:22.572Z,31.52
2018-09-15T14:39:50.832Z,32.29
2018-09-15T14:42:19.109Z,31.80
2018-09-15T14:44:47.318Z,32.12
2018-09-15T14:47:16.855Z,32.24
2018-09-15T14:49:45.040Z,32.61
2018-09-15T14:52:13.710Z,33.99
2018-09-15T14:54:41.805Z,33.06
2018-09-15T14:57:10.066Z,33.48
2018-09-15T14:59:38.298Z,33.63
2018-09-15T15:02:06.622Z,33.13
2018-09-15T15:04:34.822Z,33.41
2018-09-15T15:07:03.093Z,33.82
2018-09-15T15:09:31.331Z,33.61
2018-09-15T15:11:59.585Z,33.04
2018-09-15T15:14:27.768Z,33.32
2018-09-15T15:16:55.883Z,33.13
2018-09-15T15:19:24.045Z,33.23
2018-09-15T15:21:52.215Z,33.20
2018-09-15T15:24:20.349Z,33.56
2018-09-15T15:26:48.575Z,33.49
2018-09-15T15:29:17.006Z,33.15
2018-09-15T15:31:45.191Z,33.02
2018-09-15T15:34:13.256Z,32.44
2018-09-15T15:36:41.478Z,33.62
2018-09-15T15:39:10.238Z,33.62
2018-09-15T15:41:38.388Z,33.43
2018-09-15T15:44:06.626Z,34.47
2018-09-15T15:46:34.878Z,35.01
2018-09-15T15:49:03.728Z,34.91
2018-09-15T15:51:32.240Z,35.66
2018-09-15T15:54:00.314Z,35.34
2018-09-15T15:56:28.495Z,35.66
2018-09-15T15:58:56.714Z,36.48
2018-09-15T16:01:24.973Z,36.66
2018-09-15T16:03:53.172Z,36.82
2018-09-15T16:06:21.459Z,36.79
2018-09-15T16:08:50.381Z,36.99
2018-09-15T16:11:18.774Z,37.44
2018-09-15T16:13:47.900Z,36.68
2018-09-15T16:16:16.172Z,36.72
2018-09-15T16:18:44.505Z,36.97
2018-09-15T16:21:12.726Z,37.65
2018-09-15T16:23:41.003Z,38.29
2018-09-15T16:26:09.102Z,38.74
2018-09-15T16:28:38.778Z,38.47
2018-09-15T16:31:06.964Z,38.27
2018-09-15T16:33:35.127Z,38.66
2018-09-15T16:36:03.471Z,38.71
2018-09-15T16:38:31.756Z,39.00
2018-09-15T16:40:59.962Z,39.33
2018-09-15T16:43:28.180Z,38.55
2018-09-15T16:45:56.386Z,39.60
2018-09-15T16:48:24.647Z,39.57
2018-09-15T16:50:52.891Z,40.54
2018-09-15T16:53:21.061Z,40.38
2018-09-15T16:55:49.362Z,41.00
2018-09-15T16:58:17.482Z,40.71
2018-09-15T17:00:45.760Z,40.25
2018-09-15T17:03:14.131Z,41.47
2018-09-15T17:05:42.328Z,41.52
2018-09-15T17:08:10.666Z,41.88
2018-09-15T17:10:38.921Z,41.94
2018-09-15T17:13:07.075Z,42.53
2018-09-15T17:15:35.870Z,42.60
2018-09-15T17:18:04.054Z,42.79
2018-09-15T17:20:32.375Z,43.32
2018-09-15T17:23:00.622Z,43.11
2018-09-15T17:25:28.895Z,43.30
2018-09-15T17:27:57.169Z,43.60
2018-09-15T17:30:25.733Z,43.18
2018-09-15T17:32:53.969Z,43.23
2018-09-15T17:35:22.187Z,43.85
2018-09-15T17:37:50.314Z,43.55
2018-09-15T17:40:18.650Z,43.60
2018-09-15T17:42:46.961Z,43.95
2018-09-15T17:45:15.209Z,43.70
2018-09-15T17:47:44.522Z,44.03
2018-09-15T17:50:12.956Z,44.79
2018-09-15T17:52:41.320Z,44.13
2018-09-15T17:55:09.589Z,44.50
2018-09-15T17:57:37.703Z,44.52
2018-09-15T18:00:06.628Z,44.88
2018-09-15T18:02:35.387Z,45.22
2018-09-15T18:05:04.402Z,45.82
2018-09-15T18:07:32.651Z,46.69
2018-09-15T18:10:00.879Z,47.03
2018-09-15T18:12:29.084Z,47.44
2018-09-15T18:14:57.332Z,47.53
2018-09-15T18:17:25.514Z,47.20
2018-09-15T18:19:54.121Z,47.17
2018-09-15T18:22:22.294Z,47.91
2018-09-15T18:24:50.511Z,47.76
2018-09-15T18:27:19.540Z,48.28
2018-09-15T18:29:47.879Z,48.53
2018-09-15T18:32:16.192Z,48.69
2018-09-15T18:34:44.356Z,48.55
2018-09-15T18:37:12.601Z,48.81
2018-09-15T18:39:40.962Z,49.33
2018-09-15T18:42:09.220Z,49.86
2018-09-15T18:44:37.466Z,50.25
2018-09-15T18:47:06.296Z,50.32
2018-09-15T18:49:34.461Z,50.23
2018-09-15T18:52:02.738Z,51.19
2018-09-15T18:54:30.942Z,50.83
2018-09-15T18:56:59.062Z,51.73
2018-09-15T18:59:27.853Z,51.21
2018-09-15T19:01:56.709Z,51.96
2018-09-15T19:04:25.735Z,52.15
2018-09-15T19:06:53.938Z,51.98
2018-09-15T19:09:22.146Z,52.25
2018-09-15T19:11:50.325Z,52.78
2018-09-15T19:14:18.503Z,52.47
2018-09-15T19:16:46.722Z,53.20
2018-09-15T19:19:14.910Z,52.03
2018-09-15T19:21:43.170Z,51.72
2018-09-15T19:24:11.390Z,52.63
2018-09-15T19:26:39.709Z,51.98
2018-09-15T19:29:07.944Z,52.10
2018-09-15T19:31:36.122Z,53.32
2018-09-15T19:34:04.512Z,52.91
2018-09-15T19:36:32.726Z,52.94
2018-09-15T19:39:01.135Z,54.16
2018-09-15T19:41:29.486Z,54.80
2018-09-15T19:43:57.710Z,54.59
2018-09-15T19:46:26.541Z,55.09
2018-09-15T19:48:54.934Z,55.48
2018-09-15T19:51:23.110Z,55.45
2018-09-15T19:53:51.275Z,55.87
2018-09-15T19:56:19.488Z,56.55
2018-09-15T19:58:47.741Z,56.24
2018-09-15T20:01:16.121Z,56.96
2018-09-15T20:03:44.436Z,57.59
2018-09-15T20:06:12.769Z,57.36
2018-09-15T20:08:41.035Z,57.65
2018-09-15T20:11:09.339Z,57.36
2018-09-15T20:13:37.627Z,57.50
2018-09-15T20:16:04.169Z,57.70
2018-09-15T20:18:30.799Z,58.06
2018-09-15T20:20:57.349Z,58.54
2018-09-15T20:23:25.854Z,58.52
2018-09-15T20:25:54.179Z,58.19
2018-09-15T20:28:22.412Z,58.74
2018-09-15T20:30:50.593Z,58.80
2018-09-15T20:33:18.941Z,59.33
2018-09-15T20:35:47.102Z,59.50
2018-09-15T20:38:15.269Z,59.29
2018-09-15T20:40:43.609Z,59.20
2018-09-15T20:43:12.543Z,59.19
2018-09-15T20:45:40.849Z,60.16
2018-09-15T20:48:09.148Z,59.75
2018-09-15T20:50:37.588Z,59.36
2018-09-15T20:53:05.848Z,59.50
2018-09-15T20:55:34.088Z,59.94
2018-09-15T20:58:02.339Z,60.16
2018-09-15T21:00:30.573Z,59.63
2018-09-15T21:02:58.777Z,60.03
2018-09-15T21:05:26.922Z,59.84
2018-09-15T21:07:55.045Z,60.28
2018-09-15T21:10:23.304Z,59.68
2018-09-15T21:12:51.588Z,60.00
2018-09-15T21:15:19.832Z,60.04
2018-09-15T21:17:48.165Z,60.41
2018-09-15T21:20:16.503Z,60.82
2018-09-15T21:22:44.616Z,60.47
2018-09-15T21:25:12.916Z,60.46
2018-09-15T21:27:41.028Z,61.41
2018-09-15T21:30:09.196Z,61.36
2018-09-15T21:32:37.450Z,61.59
2018-09-15T21:35:05.668Z,61.97
2018-09-15T21:37:33.939Z,61.80
2018-09-15T21:40:02.097Z,61.83
2018-09-15T21:42:30.333Z,62.76
2018-09-15T21:44:58.500Z,62.52
2018-09-15T21:47:26.836Z,62.03
2018-09-15T21:49:55.103Z,61.85
2018-09-15T21:52:23.276Z,61.78
2018-09-15T21:54:51.580Z,62.55
2018-09-15T21:57:19.816Z,62.67
2018-09-15T21:59:48.029Z,61.75
2018-09-15T22:02:16.187Z,62.08
2018-09-15T22:04:44.447Z,62.57
2018-09-15T22:07:12.659Z,62.61
2018-09-15T22:09:41.074Z,62.43
2018-09-15T22:12:09.309Z,63.36
2018-09-15T22:14:37.585Z,62.77
2018-09-15T22:17:05.871Z,62.80
2018-09-15T22:19:34.121Z,62.87
2018-09-15T22:22:02.289Z,63.54
2018-09-15T22:24:30.455Z,63.00
2018-09-15T22:26:58.575Z,63.48
2018-09-15T22:29:26.818Z,63.50
2018-09-15T22:31:55.784Z,63.66
2018-09-15T22:34:24.051Z,63.61
2018-09-15T22:36:52.207Z,63.17
2018-09-15T22:39:20.377Z,63.91
2018-09-15T22:41:48.683Z,64.00
2018-09-15T22:44:16.985Z,63.80
2018-09-15T22:46:45.216Z,63.91
2018-09-15T22:49:13.474Z,63.83
2018-09-15T22:51:41.657Z,64.08
2018-09-15T22:54:09.918Z,64.41
2018-09-15T22:56:38.117Z,63.37
2018-09-15T22:59:06.595Z,63.27
2018-09-15T23:01:34.686Z,63.39
2018-09-15T23:04:03.955Z,63.53
2018-09-15T23:06:32.382Z,62.44
2018-09-15T23:09:00.511Z,63.21
2018-09-15T23:11:28.726Z,62.78
2018-09-15T23:13:56.847Z,61.91
2018-09-15T23:16:25.052Z,61.92
2018-09-15T23:18:53.302Z,62.85
2018-09-15T23:21:21.587Z,62.66
2018-09-15T23:23:49.831Z,62.67
2018-09-15T23:26:18.029Z,63.18
2018-09-15T23:28:46.432Z,61.58
2018-09-15T23:31:14.630Z,62.71
2018-09-15T23:33:42.792Z,62.48
2018-09-15T23:36:11.054Z,63.57
2018-09-15T23:38:39.473Z,63.72
2018-09-15T23:41:08.096Z,63.79
2018-09-15T23:43:36.728Z,63.55
2018-09-15T23:46:04.952Z,62.98
2018-09-15T23:48:33.138Z,63.09
2018-09-15T23:51:01.321Z,62.29
2018-09-15T23:53:29.600Z,61.73
2018-09-15T23:55:57.839Z,62.32
2018-09-15T23:58:26.156Z,61.49
